Latest Coastal Weather Observations for Rosslyn Bay Harbour

IDQ60701

Issued at 9:13 pm EST Sunday 26 May 2024 (issued every 10 minutes, with the page automatically refreshed every 10 minutes)

About coastal observations | Map of coastal stations | Coastal observations for QLD | Marine services | Other Formats
Station Details ID: 033208 Name: ROSSLYN BAY NTC AWS Lat: -23.16 Lon: 150.79 Height: 0.0 m
Data from the previous 72 hours. | See also: Recent months for locations in Queensland
Date/Time
EST
Wind Sea
Height
m
Swell Vis
km
Cloud Weather Temp
°C
Press
MSL
hPa
Rain since
9am
mm
Dir  Spd
kts
Gust
kts
Height
m
Period
s
Dir
26/09:00pm S 4 10 - - - - - - - 22.1 1022.3 -
26/08:30pm S 3 7 - - - - - - - 22.0 1022.0 -
26/08:00pm S 4 9 - - - - - - - 22.1 1021.8 -
26/07:30pm S 4 9 - - - - - - - 22.1 1021.6 -
26/07:00pm S 4 10 - - - - - - - 22.0 1021.2 -
26/06:30pm S 4 9 - - - - - - - 22.1 1021.0 -
26/06:00pm SSW 4 9 - - - - - - - 22.0 1020.8 -
26/05:30pm S 6 10 - - - - - - - 22.0 1020.5 -
26/05:00pm S 6 10 - - - - - - - 22.1 1020.2 -
26/04:30pm S 7 11 - - - - - - - 22.3 1020.0 -
26/04:00pm S 7 11 - - - - - - - 22.4 1019.9 -
26/03:30pm S 7 10 - - - - - - - 22.4 1019.8 -
26/03:00pm S 7 12 - - - - - - - 22.4 1019.8 -
26/02:30pm S 8 12 - - - - - - - 22.4 1019.9 -
26/02:00pm S 9 13 - - - - - - - 22.3 1020.0 -
26/01:30pm S 9 14 - - - - - - - 22.2 1020.3 -
26/01:00pm S 8 13 - - - - - - - 22.3 1020.7 -
26/12:30pm S 6 13 - - - - - - - 22.2 1021.2 -
26/12:00pm S 5 9 - - - - - - - 21.9 1021.5 -
26/11:30am S 5 9 - - - - - - - 21.5 1021.9 -
26/11:00am S 6 10 - - - - - - - 21.0 1022.3 -
26/10:30am SSE 6 10 - - - - - - - 20.8 1022.7 -
26/10:00am S 5 10 - - - - - - - 20.7 1022.9 -
26/09:30am S 4 9 - - - - - - - 20.7 1022.9 -
26/09:00am S 5 12 - - - - - - - 20.2 1022.7 -
26/08:30am S 4 9 - - - - - - - 20.1 1022.4 -
26/08:00am SSW 3 8 - - - - - - - 19.5 1022.2 -
26/07:30am SSW 3 5 - - - - - - - 17.7 1022.0 -
26/07:00am SSW 3 6 - - - - - - - 17.1 1021.8 -
26/06:30am SSW 4 7 - - - - - - - 17.1 1021.4 -
26/06:00am SSW 4 7 - - - - - - - 17.3 1021.2 -
26/05:30am SSW 4 7 - - - - - - - 17.5 1020.9 -
26/05:00am SSW 4 7 - - - - - - - 17.2 1020.7 -
26/04:30am SSW 2 5 - - - - - - - 17.4 1020.6 -
26/04:00am SSW 3 6 - - - - - - - 17.7 1020.6 -
26/03:30am SSW 2 5 - - - - - - - 18.0 1020.7 -
26/03:00am SSW 2 5 - - - - - - - 18.0 1020.7 -
26/02:30am SSW 3 5 - - - - - - - 18.6 1020.8 -
26/02:00am SSW 3 6 - - - - - - - 18.6 1021.0 -
26/01:30am S 6 12 - - - - - - - 20.4 1021.4 -
26/01:00am S 4 9 - - - - - - - 20.4 1021.5 -
26/12:30am S 4 7 - - - - - - - 20.4 1021.7 -
26/12:00am S 4 8 - - - - - - - 20.5 1021.7 -
 
Date/Time
EST
Wind Sea
Height
m
Swell Vis
km
Cloud Weather Temp
°C
Press
MSL
hPa
Rain since
9am
mm
Dir  Spd
kts
Gust
kts
Height
m
Period
s
Dir
25/11:30pm SSW 4 7 - - - - - - - 20.4 1022.1 -
25/11:00pm SSW 4 10 - - - - - - - 20.8 1022.2 -
25/10:30pm S 7 11 - - - - - - - 21.9 1022.4 -
25/10:00pm S 7 11 - - - - - - - 21.9 1022.4 -
25/09:30pm S 7 11 - - - - - - - 21.9 1022.4 -
25/09:00pm S 8 14 - - - - - - - 21.7 1022.2 -
25/08:30pm S 8 12 - - - - - - - 21.8 1022.2 -
25/08:00pm S 8 13 - - - - - - - 21.7 1022.0 -
25/07:30pm S 8 14 - - - - - - - 21.8 1021.7 -
25/07:00pm S 8 13 - - - - - - - 21.7 1021.5 -
25/06:30pm S 7 11 - - - - - - - 21.8 1021.3 -
25/06:00pm S 7 12 - - - - - - - 21.7 1021.0 -
25/05:30pm SSW 6 11 - - - - - - - 21.6 1020.8 -
25/05:00pm S 9 14 - - - - - - - 21.6 1020.8 -
25/04:30pm S 9 14 - - - - - - - 21.9 1020.7 -
25/04:00pm S 9 15 - - - - - - - 21.7 1020.6 -
25/03:30pm S 9 15 - - - - - - - 22.0 1020.4 -
25/03:00pm S 8 14 - - - - - - - 21.9 1020.4 -
25/02:30pm S 7 13 - - - - - - - 21.8 1020.5 -
25/02:00pm S 8 14 - - - - - - - 21.5 1020.7 -
25/01:30pm S 10 16 - - - - - - - 21.5 1020.9 -
25/01:00pm S 9 15 - - - - - - - 21.3 1021.3 -
25/12:30pm S 8 14 - - - - - - - 21.2 1021.8 -
25/12:00pm S 8 14 - - - - - - - 21.3 1022.1 -
25/11:30am S 6 12 - - - - - - - 21.2 1022.4 -
25/11:00am S 8 15 - - - - - - - 20.9 1022.9 -
25/10:30am S 7 13 - - - - - - - 20.9 1023.0 -
25/10:00am S 6 12 - - - - - - - 20.6 1023.2 -
25/09:30am S 9 16 - - - - - - - 20.4 1023.2 -
25/09:00am S 6 12 - - - - - - - 20.5 1022.9 -
25/08:30am S 6 13 - - - - - - - 20.3 1022.6 -
25/08:00am S 6 12 - - - - - - - 20.3 1022.3 -
25/07:30am S 8 15 - - - - - - - 20.1 1022.2 -
25/07:00am S 8 14 - - - - - - - 20.1 1022.1 -
25/06:30am SSW 3 7 - - - - - - - 18.9 1021.8 -
25/06:00am SW 2 7 - - - - - - - 18.4 1021.4 -
25/05:30am SSW 2 5 - - - - - - - 18.5 1021.1 -
25/05:00am SSW 5 10 - - - - - - - 19.0 1021.5 -
25/04:30am SSW 5 8 - - - - - - - 19.1 1021.1 -
25/04:00am SSW 5 10 - - - - - - - 19.7 1020.9 -
25/03:30am SSW 4 8 - - - - - - - 18.6 1020.9 -
25/03:00am S 2 6 - - - - - - - 18.4 1020.9 -
25/02:30am SSW 5 7 - - - - - - - 18.4 1021.3 -
25/02:00am S 4 9 - - - - - - - 18.6 1021.9 -
25/01:30am S 10 21 - - - - - - - 19.0 1022.1 -
25/01:00am S 9 14 - - - - - - - 18.8 1022.4 -
25/12:30am SSW 3 8 - - - - - - - 20.3 1022.4 -
25/12:00am S 6 14 - - - - - - - 20.3 1022.4 -
 
Date/Time
EST
Wind Sea
Height
m
Swell Vis
km
Cloud Weather Temp
°C
Press
MSL
hPa
Rain since
9am
mm
Dir  Spd
kts
Gust
kts
Height
m
Period
s
Dir
24/11:30pm S 8 16 - - - - - - - 20.7 1022.6 -
24/11:00pm SSW 5 12 - - - - - - - 20.7 1022.5 -
24/10:30pm S 5 10 - - - - - - - 21.4 1022.5 -
24/10:00pm SSW 7 13 - - - - - - - 22.0 1022.7 -
24/09:30pm SSW 7 15 - - - - - - - 22.1 1022.8 -
24/09:00pm S 7 14 - - - - - - - 21.9 1022.9 -
24/08:30pm S 8 13 - - - - - - - 21.8 1022.5 -
24/08:00pm S 9 12 - - - - - - - 21.8 1022.2 -
24/07:30pm S 7 12 - - - - - - - 21.6 1021.6 -
24/07:00pm S 5 11 - - - - - - - 21.3 1021.1 -
24/06:30pm S 8 14 - - - - - - - 20.9 1021.2 -
24/06:00pm S 12 19 - - - - - - - 21.6 1020.5 -
24/05:30pm S 5 11 - - - - - - - 21.2 1020.4 -
24/05:00pm S 8 13 - - - - - - - 21.6 1020.5 -
24/04:30pm S 7 13 - - - - - - - 21.7 1020.9 -
24/04:00pm S 9 14 - - - - - - - 21.7 1020.6 -
24/03:30pm S 8 17 - - - - - - - 21.7 1020.6 -
24/03:00pm WNW 1 4 - - - - - - - 21.7 1020.6 -
24/02:30pm E 2 5 - - - - - - - 20.1 1021.0 -
24/02:00pm WSW 4 10 - - - - - - - 20.0 1021.1 -
24/01:30pm SW 3 8 - - - - - - - 20.1 1021.0 -
24/01:00pm SSW 5 12 - - - - - - - 20.8 1021.3 -
24/12:30pm S 9 17 - - - - - - - 21.5 1021.3 -
24/12:00pm S 10 18 - - - - - - - 21.1 1021.8 -
24/11:30am S 10 19 - - - - - - - 20.9 1022.1 -
24/11:00am S 10 18 - - - - - - - 20.9 1022.2 -
24/10:30am S 11 19 - - - - - - - 20.9 1022.5 -
24/10:00am S 12 22 - - - - - - - 20.7 1022.8 -
24/09:30am S 11 19 - - - - - - - 20.8 1022.9 -
24/09:00am S 5 11 - - - - - - - 20.6 1022.7 -
24/08:30am S 7 15 - - - - - - - 20.5 1022.3 -
24/08:00am S 7 13 - - - - - - - 20.4 1022.3 -
24/07:30am S 4 10 - - - - - - - 20.1 1022.2 -
24/07:00am S 6 14 - - - - - - - 20.0 1022.1 -
24/06:30am S 6 15 - - - - - - - 20.0 1021.6 -
24/06:00am S 9 17 - - - - - - - 19.8 1021.3 -
24/05:30am S 8 18 - - - - - - - 19.6 1021.2 -
24/05:00am S 8 19 - - - - - - - 20.2 1021.1 -
24/04:30am S 7 17 - - - - - - - 20.3 1020.8 -
24/04:00am SSW 4 8 - - - - - - - 19.4 1021.0 -
24/03:30am S 4 11 - - - - - - - 19.0 1021.1 -
24/03:00am S 8 13 - - - - - - - 19.7 1021.0 -
24/02:30am S 9 15 - - - - - - - 20.5 1021.0 -
24/02:00am S 6 15 - - - - - - - 20.5 1021.2 -
24/01:30am S 8 15 - - - - - - - 20.6 1021.4 -
24/01:00am S 12 20 - - - - - - - 20.8 1021.6 -
24/12:30am S 8 21 - - - - - - - 20.6 1021.7 -
24/12:00am S 9 18 - - - - - - - 21.1 1022.0 -
 
Date/Time
EST
Wind Sea
Height
m
Swell Vis
km
Cloud Weather Temp
°C
Press
MSL
hPa
Rain since
9am
mm
Dir  Spd
kts
Gust
kts
Height
m
Period
s
Dir
23/11:30pm S 10 19 - - - - - - - 21.4 1022.1 -
23/11:00pm S 10 17 - - - - - - - 21.7 1022.3 -
23/10:30pm S 12 19 - - - - - - - 21.9 1022.3 -
23/10:00pm S 10 16 - - - - - - - 22.2 1022.5 -
23/09:30pm S 11 19 - - - - - - - 22.2 1022.5 -

Other formats

Comma delimited format used in spreadsheet applications
http://www.bom.gov.au/fwo/IDQ60701/IDQ60701.95298.axf

JavaScript Object Notation format (JSON) in row-major order
http://www.bom.gov.au/fwo/IDQ60701/IDQ60701.95298.json

Data quality

Most of these data are generated automatically and are frequently updated. Quality checks on data are not normally performed. It is possible for incorrect values to appear. Refer to information at About Latest Weather Observations and please check the disclaimer before using these data.